createdAt,value
2019-05-13T00:00:17.525Z,82.80
2019-05-13T00:01:17.510Z,82.59
2019-05-13T00:02:17.498Z,82.49
2019-05-13T00:03:17.488Z,82.63
2019-05-13T00:04:17.539Z,81.97
2019-05-13T00:05:17.464Z,81.70
2019-05-13T00:06:17.452Z,81.70
2019-05-13T00:07:17.440Z,81.80
2019-05-13T00:08:17.434Z,81.21
2019-05-13T00:09:17.419Z,81.63
2019-05-13T00:10:17.471Z,82.04
2019-05-13T00:11:17.396Z,81.94
2019-05-13T00:12:17.383Z,82.15
2019-05-13T00:13:17.373Z,82.67
2019-05-13T00:14:17.359Z,82.56
2019-05-13T00:15:17.349Z,82.67
2019-05-13T00:16:17.406Z,82.56
2019-05-13T00:17:17.324Z,82.46
2019-05-13T00:18:17.314Z,82.25
2019-05-13T00:19:17.303Z,82.25
2019-05-13T00:20:17.303Z,82.08
2019-05-13T00:21:17.281Z,82.08
2019-05-13T00:22:17.333Z,82.70
2019-05-13T00:23:17.257Z,84.37
2019-05-13T00:24:17.245Z,84.51
2019-05-13T00:25:17.233Z,84.96
2019-05-13T00:26:17.224Z,85.90
2019-05-13T00:27:17.212Z,85.73
2019-05-13T00:28:17.262Z,86.15
2019-05-13T00:29:17.187Z,87.02
2019-05-13T00:30:17.176Z,86.81
2019-05-13T00:31:17.163Z,87.54
2019-05-13T00:32:17.151Z,87.12
2019-05-13T00:33:17.143Z,86.71
2019-05-13T00:34:17.196Z,87.54
2019-05-13T00:35:17.117Z,87.19
2019-05-13T00:36:17.105Z,85.73
2019-05-13T00:37:17.093Z,85.49
2019-05-13T00:38:17.082Z,85.17
2019-05-13T00:39:17.072Z,84.47
2019-05-13T00:40:17.131Z,83.33
2019-05-13T00:41:17.051Z,83.01
2019-05-13T00:42:17.039Z,82.46
2019-05-13T00:43:17.026Z,82.15
2019-05-13T00:44:17.012Z,82.25
2019-05-13T00:45:17.001Z,81.73
2019-05-13T00:46:17.055Z,81.42
2019-05-13T00:47:16.979Z,82.04
2019-05-13T00:48:16.965Z,81.98
2019-05-13T00:49:16.958Z,81.56
2019-05-13T00:50:16.944Z,82.18
2019-05-13T00:51:16.932Z,81.67
2019-05-13T00:52:16.987Z,81.77
2019-05-13T00:53:16.908Z,82.18
2019-05-13T00:54:16.896Z,82.22
2019-05-13T00:55:16.884Z,82.29
2019-05-13T00:56:16.875Z,82.29
2019-05-13T00:57:16.862Z,82.84
2019-05-13T00:58:16.917Z,81.91
2019-05-13T00:59:16.842Z,82.84
2019-05-13T01:00:16.831Z,83.05
2019-05-13T01:01:16.819Z,83.58
2019-05-13T01:02:16.807Z,83.30
2019-05-13T01:03:16.794Z,83.40
2019-05-13T01:04:16.851Z,83.26
2019-05-13T01:05:16.771Z,83.01
2019-05-13T01:06:16.760Z,83.37
2019-05-13T01:07:25.966Z,83.33
2019-05-13T01:08:17.735Z,83.01
2019-05-13T01:09:16.741Z,83.22
2019-05-13T01:10:16.775Z,83.16
2019-05-13T01:11:16.701Z,83.22
2019-05-13T01:12:16.690Z,83.47
2019-05-13T01:13:16.682Z,83.64
2019-05-13T01:14:16.668Z,83.33
2019-05-13T01:15:16.655Z,83.43
2019-05-13T01:16:16.710Z,83.22
2019-05-13T01:17:16.632Z,83.12
2019-05-13T01:18:16.620Z,83.16
2019-05-13T01:19:16.610Z,83.37
2019-05-13T01:20:16.598Z,83.33
2019-05-13T01:21:16.584Z,83.78
2019-05-13T01:22:16.636Z,84.09
2019-05-13T01:23:16.571Z,84.20
2019-05-13T01:24:16.551Z,84.23
2019-05-13T01:25:16.540Z,85.06
2019-05-13T01:26:16.529Z,84.96
2019-05-13T01:27:16.516Z,86.11
2019-05-13T01:28:16.574Z,85.38
2019-05-13T01:29:16.493Z,86.42
2019-05-13T01:30:16.481Z,86.21
2019-05-13T01:31:16.472Z,86.11
2019-05-13T01:32:16.460Z,86.32
2019-05-13T01:33:16.448Z,86.00
2019-05-13T01:34:16.498Z,85.90
2019-05-13T01:35:16.424Z,85.59
2019-05-13T01:36:16.414Z,85.96
2019-05-13T01:37:16.403Z,85.69
2019-05-13T01:38:16.391Z,86.17
2019-05-13T01:39:16.378Z,86.11
2019-05-13T01:40:16.435Z,86.21
2019-05-13T01:41:16.355Z,86.11
2019-05-13T01:42:16.343Z,86.21
2019-05-13T01:43:16.336Z,86.32
2019-05-13T01:44:16.320Z,85.90
2019-05-13T01:45:16.311Z,86.21
2019-05-13T01:46:16.525Z,86.52
2019-05-13T01:47:16.286Z,85.73
2019-05-13T01:48:16.278Z,85.28
2019-05-13T01:49:18.612Z,85.69
2019-05-13T01:50:16.254Z,85.73
2019-05-13T01:51:16.241Z,85.69
2019-05-13T01:52:16.293Z,85.69
2019-05-13T01:53:16.219Z,85.28
2019-05-13T01:54:16.208Z,85.49
2019-05-13T01:55:16.198Z,85.69
2019-05-13T01:56:16.185Z,86.25
2019-05-13T01:57:16.174Z,86.35
2019-05-13T01:58:16.231Z,86.04
2019-05-13T01:59:16.151Z,85.63
2019-05-13T02:00:16.140Z,86.46
2019-05-13T02:01:16.132Z,86.98
2019-05-13T02:02:16.127Z,86.77
2019-05-13T02:03:16.107Z,87.19
2019-05-13T02:04:16.164Z,86.98
2019-05-13T02:05:16.082Z,86.91
2019-05-13T02:06:16.072Z,86.81
2019-05-13T02:07:16.061Z,87.29
2019-05-13T02:08:16.059Z,87.29
2019-05-13T02:09:16.038Z,87.65
2019-05-13T02:10:16.096Z,87.96
2019-05-13T02:11:16.018Z,87.96
2019-05-13T02:12:16.006Z,87.96
2019-05-13T02:13:15.994Z,87.75
2019-05-13T02:14:15.982Z,88.58
2019-05-13T02:15:15.971Z,88.48
2019-05-13T02:16:16.025Z,88.52
2019-05-13T02:17:15.950Z,88.73
2019-05-13T02:18:15.936Z,88.62
2019-05-13T02:19:15.926Z,88.35
2019-05-13T02:20:15.914Z,88.76
2019-05-13T02:21:15.904Z,88.93
2019-05-13T02:22:15.955Z,88.66
2019-05-13T02:23:15.881Z,88.42
2019-05-13T02:24:15.872Z,88.10
2019-05-13T02:25:15.911Z,88.10
2019-05-13T02:26:15.849Z,88.31
2019-05-13T02:27:15.840Z,88.62
2019-05-13T02:28:15.902Z,87.99
2019-05-13T02:29:15.813Z,88.42
2019-05-13T02:30:16.583Z,88.62
2019-05-13T02:31:25.023Z,88.87
2019-05-13T02:32:16.788Z,88.66
2019-05-13T02:33:15.771Z,89.14
2019-05-13T02:34:15.821Z,88.98
2019-05-13T02:35:15.748Z,89.14
2019-05-13T02:36:15.735Z,88.93
2019-05-13T02:37:15.725Z,89.04
2019-05-13T02:38:23.858Z,88.42
2019-05-13T02:39:16.763Z,88.73
2019-05-13T02:40:15.695Z,88.42
2019-05-13T02:41:15.680Z,88.42
2019-05-13T02:42:15.670Z,88.76
2019-05-13T02:43:15.658Z,88.83
2019-05-13T02:44:15.646Z,88.66
2019-05-13T02:45:15.704Z,88.93
2019-05-13T02:46:15.624Z,88.76
2019-05-13T02:47:15.616Z,88.66
2019-05-13T02:48:15.605Z,88.76
2019-05-13T02:49:15.595Z,88.76
2019-05-13T02:50:15.583Z,88.45
2019-05-13T02:51:15.639Z,88.14
2019-05-13T02:52:15.558Z,88.66
2019-05-13T02:53:15.546Z,88.76
2019-05-13T02:54:15.537Z,89.18
2019-05-13T02:55:15.529Z,89.22
2019-05-13T02:56:15.516Z,89.39
2019-05-13T02:57:15.569Z,89.75
2019-05-13T02:58:15.491Z,89.60
2019-05-13T02:59:15.480Z,90.12
2019-05-13T03:00:15.470Z,90.16
2019-05-13T03:01:15.461Z,89.95
2019-05-13T03:02:15.449Z,90.06
2019-05-13T03:03:15.505Z,90.26
2019-05-13T03:04:15.430Z,90.52
2019-05-13T03:05:15.417Z,90.37
2019-05-13T03:06:15.409Z,90.41
2019-05-13T03:07:15.390Z,90.20
2019-05-13T03:08:34.179Z,90.72
2019-05-13T03:09:16.437Z,90.52
2019-05-13T03:10:15.364Z,90.87
2019-05-13T03:11:15.344Z,91.04
2019-05-13T03:12:15.361Z,91.81
2019-05-13T03:13:15.324Z,91.71
2019-05-13T03:14:15.308Z,91.81
2019-05-13T03:15:15.364Z,92.12
2019-05-13T03:16:15.287Z,91.29
2019-05-13T03:17:15.274Z,92.12
2019-05-13T03:18:15.268Z,91.60
2019-05-13T03:19:15.255Z,91.60
2019-05-13T03:20:16.706Z,91.60
2019-05-13T03:21:15.303Z,91.60
2019-05-13T03:22:15.217Z,91.29
2019-05-13T03:23:15.210Z,92.02
2019-05-13T03:24:15.198Z,91.71
2019-05-13T03:25:15.184Z,92.12
2019-05-13T03:26:15.172Z,91.71
2019-05-13T03:27:19.642Z,91.71
2019-05-13T03:28:16.154Z,92.44
2019-05-13T03:29:15.137Z,92.44
2019-05-13T03:30:16.943Z,92.47
2019-05-13T03:31:17.381Z,92.27
2019-05-13T03:32:16.746Z,92.47
2019-05-13T03:33:19.486Z,92.69
2019-05-13T03:34:16.439Z,92.90
2019-05-13T03:35:16.876Z,93.10
2019-05-13T03:36:17.011Z,93.73
2019-05-13T03:37:16.272Z,94.35
2019-05-13T03:38:15.038Z,94.46
2019-05-13T03:39:16.631Z,94.31
2019-05-13T03:40:15.018Z,94.78
2019-05-13T03:41:15.004Z,94.25
2019-05-13T03:42:14.992Z,94.15
2019-05-13T03:43:14.981Z,93.90
2019-05-13T03:44:14.968Z,93.63
2019-05-13T03:45:15.027Z,93.16
2019-05-13T03:46:14.948Z,92.37
2019-05-13T03:47:14.932Z,92.44
2019-05-13T03:48:14.924Z,92.75
2019-05-13T03:49:14.913Z,92.33
2019-05-13T03:50:14.902Z,92.58
2019-05-13T03:51:14.960Z,92.16
2019-05-13T03:52:14.876Z,91.54
2019-05-13T03:53:14.865Z,92.47
2019-05-13T03:54:14.856Z,92.37
2019-05-13T03:55:14.846Z,92.47
2019-05-13T03:56:14.830Z,92.27
2019-05-13T03:57:14.889Z,92.47
2019-05-13T03:58:14.811Z,93.21
2019-05-13T03:59:14.795Z,93.21
2019-05-13T04:00:14.794Z,93.31
2019-05-13T04:01:14.785Z,93.63
2019-05-13T04:02:14.769Z,92.65
2019-05-13T04:03:14.825Z,93.00
2019-05-13T04:04:14.743Z,92.54
2019-05-13T04:05:14.727Z,92.75
2019-05-13T04:06:14.719Z,93.06
2019-05-13T04:07:14.706Z,92.44
2019-05-13T04:08:14.696Z,92.75
2019-05-13T04:09:25.507Z,92.33
2019-05-13T04:10:15.671Z,92.18
2019-05-13T04:11:14.661Z,91.72
2019-05-13T04:12:14.648Z,91.62
2019-05-13T04:13:14.637Z,90.79
2019-05-13T04:14:14.626Z,90.58
2019-05-13T04:15:14.687Z,90.58
2019-05-13T04:16:14.613Z,90.68
2019-05-13T04:17:14.595Z,90.26
2019-05-13T04:18:14.580Z,90.16
2019-05-13T04:19:14.570Z,90.68
2019-05-13T04:20:14.562Z,90.47
2019-05-13T04:21:14.612Z,90.79
2019-05-13T04:22:14.535Z,90.89
2019-05-13T04:23:14.552Z,90.54
2019-05-13T04:24:14.511Z,90.47
2019-05-13T04:25:14.500Z,90.33
2019-05-13T04:26:15.353Z,90.58
2019-05-13T04:27:14.545Z,90.01
2019-05-13T04:28:14.465Z,90.39
2019-05-13T04:29:14.463Z,90.54
2019-05-13T04:30:14.442Z,90.33
2019-05-13T04:31:14.820Z,90.19
2019-05-13T04:32:14.420Z,90.08
2019-05-13T04:33:14.487Z,89.76
2019-05-13T04:34:14.413Z,89.98
2019-05-13T04:35:14.388Z,89.10
2019-05-13T04:36:14.374Z,89.31
2019-05-13T04:37:14.363Z,89.31
2019-05-13T04:38:14.354Z,89.31
2019-05-13T04:39:14.416Z,89.20
2019-05-13T04:40:14.329Z,88.96
2019-05-13T04:41:14.327Z,89.06
2019-05-13T04:42:14.318Z,88.85
2019-05-13T04:43:14.300Z,89.06
2019-05-13T04:44:14.288Z,88.96
2019-05-13T04:45:14.366Z,89.17
2019-05-13T04:46:14.792Z,88.92
2019-05-13T04:47:14.254Z,88.71
2019-05-13T04:48:14.242Z,88.81
2019-05-13T04:49:14.239Z,88.92
2019-05-13T04:50:14.239Z,88.92
2019-05-13T04:51:14.429Z,88.92
2019-05-13T04:52:14.198Z,88.71
2019-05-13T04:53:14.184Z,88.50
2019-05-13T04:54:14.177Z,88.77
2019-05-13T04:55:14.161Z,88.46
2019-05-13T04:56:14.502Z,89.18
2019-05-13T04:57:14.208Z,88.62
2019-05-13T04:58:14.128Z,88.31
2019-05-13T04:59:14.137Z,88.10
2019-05-13T05:00:14.108Z,88.42
2019-05-13T05:01:14.434Z,88.62
2019-05-13T05:02:14.085Z,88.69
2019-05-13T05:03:22.974Z,88.38
2019-05-13T05:04:24.079Z,87.76
2019-05-13T05:05:15.890Z,87.96
2019-05-13T05:06:14.042Z,87.96
2019-05-13T05:07:14.043Z,87.96
2019-05-13T05:08:14.018Z,88.28
2019-05-13T05:09:14.092Z,88.38
2019-05-13T05:10:26.450Z,88.34
2019-05-13T05:11:14.997Z,88.13
2019-05-13T05:12:13.981Z,87.82
2019-05-13T05:13:13.967Z,87.88
2019-05-13T05:14:13.950Z,87.99
2019-05-13T05:15:14.015Z,87.99
2019-05-13T05:16:13.951Z,86.80
2019-05-13T05:17:13.914Z,86.85
2019-05-13T05:18:13.903Z,86.29
2019-05-13T05:19:13.894Z,86.18
2019-05-13T05:20:13.881Z,86.80
2019-05-13T05:21:13.937Z,86.45
2019-05-13T05:22:13.856Z,86.25
2019-05-13T05:23:13.844Z,86.97
2019-05-13T05:24:13.834Z,86.25
2019-05-13T05:25:13.825Z,86.93
2019-05-13T05:26:15.306Z,85.69
2019-05-13T05:27:13.867Z,86.10
2019-05-13T05:28:13.788Z,86.72
2019-05-13T05:29:13.777Z,86.00
2019-05-13T05:30:13.765Z,85.96
2019-05-13T05:31:13.756Z,86.07
2019-05-13T05:32:13.752Z,85.50
2019-05-13T05:33:13.800Z,84.16
2019-05-13T05:34:13.720Z,83.91
2019-05-13T05:35:13.713Z,83.50
2019-05-13T05:36:13.697Z,81.98
2019-05-13T05:37:13.689Z,81.35
2019-05-13T05:38:13.680Z,80.84
2019-05-13T05:39:13.732Z,78.74
2019-05-13T05:40:27.112Z,77.46
2019-05-13T05:41:14.644Z,77.49
2019-05-13T05:42:13.629Z,75.49
2019-05-13T05:43:13.618Z,75.12
2019-05-13T05:44:13.620Z,72.92
2019-05-13T05:45:13.667Z,71.96
2019-05-13T05:46:13.584Z,70.14
2019-05-13T05:47:13.574Z,70.11
2019-05-13T05:48:13.561Z,68.51
2019-05-13T05:49:13.550Z,68.06
2019-05-13T05:50:13.538Z,65.64
2019-05-13T05:51:13.598Z,64.51
2019-05-13T05:52:13.515Z,65.61
2019-05-13T05:53:13.505Z,64.04
2019-05-13T05:54:14.737Z,64.14
2019-05-13T05:55:13.484Z,65.86
2019-05-13T05:56:13.476Z,63.68
2019-05-13T05:57:13.558Z,63.70
2019-05-13T05:58:13.448Z,64.01
2019-05-13T05:59:13.439Z,62.99
2019-05-13T06:00:13.427Z,61.86
2019-05-13T06:01:13.411Z,62.37
2019-05-13T06:02:13.399Z,62.24
2019-05-13T06:03:14.088Z,62.58
2019-05-13T06:04:13.379Z,63.40
2019-05-13T06:05:13.366Z,63.20
2019-05-13T06:06:13.357Z,63.88
2019-05-13T06:07:13.344Z,61.67
2019-05-13T06:08:13.331Z,61.50
2019-05-13T06:09:13.389Z,61.76
2019-05-13T06:10:13.311Z,63.50
2019-05-13T06:11:13.299Z,62.76
2019-05-13T06:12:13.290Z,61.19
2019-05-13T06:13:13.274Z,61.43
2019-05-13T06:14:13.266Z,61.91
2019-05-13T06:15:13.332Z,61.09
2019-05-13T06:16:13.241Z,61.98
2019-05-13T06:17:13.236Z,60.67
2019-05-13T06:18:13.219Z,59.11
2019-05-13T06:19:13.205Z,58.19
2019-05-13T06:20:13.543Z,58.09
2019-05-13T06:21:13.249Z,58.11
2019-05-13T06:22:13.170Z,58.78
2019-05-13T06:23:13.159Z,58.89
2019-05-13T06:24:13.148Z,60.35
2019-05-13T06:25:14.485Z,60.21
2019-05-13T06:26:13.124Z,59.91
2019-05-13T06:27:13.192Z,60.62
2019-05-13T06:28:13.101Z,59.94
2019-05-13T06:29:13.093Z,59.30
2019-05-13T06:30:13.080Z,58.27
2019-05-13T06:31:13.067Z,58.84
2019-05-13T06:32:21.555Z,59.38
2019-05-13T06:33:14.116Z,59.14
2019-05-13T06:34:13.033Z,58.22
2019-05-13T06:35:13.033Z,58.89
2019-05-13T06:36:13.017Z,56.99
2019-05-13T06:37:12.998Z,57.40
2019-05-13T06:38:12.994Z,57.14
2019-05-13T06:39:13.043Z,55.89
2019-05-13T06:40:12.966Z,54.16
2019-05-13T06:41:14.739Z,52.60
2019-05-13T06:42:12.946Z,52.81
2019-05-13T06:43:12.930Z,53.80
2019-05-13T06:44:12.925Z,51.97
2019-05-13T06:45:12.980Z,52.37
2019-05-13T06:46:12.896Z,50.62
2019-05-13T06:47:12.885Z,51.13
2019-05-13T06:48:12.882Z,50.98
2019-05-13T06:49:12.862Z,50.29
2019-05-13T06:50:12.853Z,51.66
2019-05-13T06:51:12.911Z,52.25
2019-05-13T06:52:12.828Z,51.94
2019-05-13T06:53:12.934Z,52.04
2019-05-13T06:54:12.804Z,52.02
2019-05-13T06:55:12.797Z,50.57
2019-05-13T06:56:12.780Z,50.65
2019-05-13T06:57:13.594Z,50.34
2019-05-13T06:58:12.757Z,50.65
2019-05-13T06:59:12.752Z,50.98
2019-05-13T07:00:12.740Z,50.06
2019-05-13T07:01:12.724Z,50.47
2019-05-13T07:02:12.715Z,50.55
2019-05-13T07:03:13.044Z,50.73
2019-05-13T07:04:12.689Z,50.01
2019-05-13T07:05:12.679Z,49.69
2019-05-13T07:06:12.672Z,50.24
2019-05-13T07:07:16.892Z,49.08
2019-05-13T07:08:12.647Z,49.97
2019-05-13T07:09:12.711Z,48.14
2019-05-13T07:10:12.896Z,48.87
2019-05-13T07:11:20.408Z,48.63
2019-05-13T07:12:13.604Z,47.28
2019-05-13T07:13:12.588Z,47.87
2019-05-13T07:14:12.939Z,46.35
2019-05-13T07:15:12.634Z,47.26
2019-05-13T07:16:12.553Z,47.79
2019-05-13T07:17:12.587Z,45.86
2019-05-13T07:18:15.941Z,46.35
2019-05-13T07:19:12.521Z,46.10
2019-05-13T07:20:12.517Z,44.38
2019-05-13T07:21:12.710Z,44.58
2019-05-13T07:22:12.486Z,44.46
2019-05-13T07:23:12.595Z,44.46
2019-05-13T07:24:12.933Z,45.82
2019-05-13T07:25:12.452Z,45.82
2019-05-13T07:26:12.442Z,46.00
2019-05-13T07:27:12.506Z,44.96
2019-05-13T07:28:12.880Z,45.17
2019-05-13T07:29:13.145Z,44.95
2019-05-13T07:30:12.399Z,44.32
2019-05-13T07:31:12.388Z,43.30
2019-05-13T07:32:12.371Z,43.63
2019-05-13T07:33:12.900Z,43.51
2019-05-13T07:34:12.355Z,43.38
2019-05-13T07:35:14.408Z,41.97
2019-05-13T07:36:12.876Z,43.59
2019-05-13T07:37:12.316Z,43.46
2019-05-13T07:38:12.307Z,42.15
2019-05-13T07:39:12.367Z,42.94
2019-05-13T07:40:12.282Z,41.93
2019-05-13T07:41:12.275Z,42.64
2019-05-13T07:42:12.571Z,41.02
2019-05-13T07:43:12.596Z,41.22
2019-05-13T07:44:12.234Z,41.93
2019-05-13T07:45:12.447Z,41.93
2019-05-13T07:46:12.736Z,41.00
2019-05-13T07:47:15.265Z,40.50
2019-05-13T07:48:20.910Z,39.28
2019-05-13T07:49:13.177Z,39.06
2019-05-13T07:50:12.804Z,39.17
2019-05-13T07:51:12.225Z,38.84
2019-05-13T07:52:12.144Z,39.77
2019-05-13T07:53:18.164Z,38.75
2019-05-13T07:54:13.119Z,38.86
2019-05-13T07:55:12.191Z,38.26
2019-05-13T07:56:12.620Z,38.59
2019-05-13T07:57:12.414Z,40.28
2019-05-13T07:58:12.075Z,40.17
2019-05-13T07:59:12.480Z,40.16
2019-05-13T08:00:12.612Z,38.52
2019-05-13T08:01:12.460Z,38.98
2019-05-13T08:02:12.484Z,40.13
2019-05-13T08:03:12.555Z,41.02
2019-05-13T08:04:22.050Z,40.53
2019-05-13T08:05:12.994Z,41.24
2019-05-13T08:06:11.980Z,40.09
2019-05-13T08:07:12.291Z,39.00
2019-05-13T08:08:12.125Z,39.65
2019-05-13T08:09:12.926Z,38.93
2019-05-13T08:10:11.940Z,37.88
2019-05-13T08:11:12.849Z,37.88
2019-05-13T08:12:14.294Z,37.07
2019-05-13T08:13:12.225Z,36.67
2019-05-13T08:14:12.441Z,36.07
2019-05-13T08:15:12.163Z,36.37
2019-05-13T08:16:12.332Z,36.07
2019-05-13T08:17:11.872Z,36.27
2019-05-13T08:18:12.329Z,36.37
2019-05-13T08:19:12.467Z,37.98
2019-05-13T08:20:12.668Z,36.87
2019-05-13T08:21:12.414Z,37.96
2019-05-13T08:22:12.238Z,36.74
2019-05-13T08:23:12.251Z,35.61
2019-05-13T08:24:12.068Z,36.74
2019-05-13T08:25:12.589Z,36.52
2019-05-13T08:26:12.464Z,35.82
2019-05-13T08:27:11.934Z,35.78
2019-05-13T08:28:12.432Z,35.08
2019-05-13T08:29:11.718Z,34.39
2019-05-13T08:30:11.985Z,34.89
2019-05-13T08:31:12.078Z,34.98
2019-05-13T08:32:11.686Z,35.41
2019-05-13T08:33:12.497Z,35.19
2019-05-13T08:34:12.030Z,34.79
2019-05-13T08:35:12.549Z,35.08
2019-05-13T08:36:12.261Z,35.01
2019-05-13T08:37:11.700Z,36.00
2019-05-13T08:38:12.182Z,36.50
2019-05-13T08:39:12.697Z,35.82
2019-05-13T08:40:12.198Z,35.57
2019-05-13T08:41:18.840Z,35.65
2019-05-13T08:42:16.775Z,35.23
2019-05-13T08:43:12.564Z,35.01
2019-05-13T08:44:12.347Z,35.41
2019-05-13T08:45:12.208Z,35.13
2019-05-13T08:46:12.503Z,35.43
2019-05-13T08:47:12.085Z,35.05
2019-05-13T08:48:12.802Z,36.70
2019-05-13T08:49:12.006Z,35.39
2019-05-13T08:50:12.122Z,36.72
2019-05-13T08:51:11.822Z,37.21
2019-05-13T08:52:12.242Z,34.06
2019-05-13T08:53:12.325Z,32.53
2019-05-13T08:54:11.676Z,32.72
2019-05-13T08:55:15.881Z,32.02
2019-05-13T08:56:12.180Z,32.79
2019-05-13T08:57:11.940Z,30.60
2019-05-13T08:58:12.501Z,31.38
2019-05-13T08:59:11.671Z,32.59
2019-05-13T09:00:13.634Z,31.47
2019-05-13T09:01:12.384Z,32.59
2019-05-13T09:02:11.674Z,31.47
2019-05-13T09:03:12.142Z,30.08
2019-05-13T09:04:12.044Z,32.27
2019-05-13T09:05:12.054Z,31.48
2019-05-13T09:06:11.725Z,30.90
2019-05-13T09:07:12.152Z,31.90
2019-05-13T09:08:11.581Z,31.41
2019-05-13T09:09:11.679Z,30.71
2019-05-13T09:10:12.471Z,31.00
2019-05-13T09:11:12.034Z,31.01
2019-05-13T09:12:11.712Z,30.63
2019-05-13T09:13:12.083Z,30.43
2019-05-13T09:14:11.414Z,31.43
2019-05-13T09:15:12.028Z,32.87
2019-05-13T09:16:13.318Z,31.46
2019-05-13T09:17:12.051Z,32.43
2019-05-13T09:18:11.490Z,31.60
2019-05-13T09:19:15.949Z,32.37
2019-05-13T09:20:12.209Z,30.54
2019-05-13T09:21:11.756Z,30.24
2019-05-13T09:22:12.359Z,30.31
2019-05-13T09:23:11.519Z,30.44
2019-05-13T09:24:23.981Z,30.50
2019-05-13T09:25:12.599Z,30.19
2019-05-13T09:26:11.961Z,29.98
2019-05-13T09:27:12.097Z,30.19
2019-05-13T09:28:12.502Z,29.86
2019-05-13T09:29:11.858Z,31.07
2019-05-13T09:30:11.784Z,29.14
2019-05-13T09:31:12.566Z,29.14
2019-05-13T09:32:12.136Z,28.50
2019-05-13T09:33:11.556Z,26.59
2019-05-13T09:34:12.183Z,28.80
2019-05-13T09:35:11.955Z,28.01
2019-05-13T09:36:12.573Z,28.55
2019-05-13T09:37:11.870Z,29.16
2019-05-13T09:38:12.662Z,28.99
2019-05-13T09:39:12.704Z,28.78
2019-05-13T09:40:11.561Z,26.65
2019-05-13T09:41:12.332Z,28.10
2019-05-13T09:42:12.678Z,28.91
2019-05-13T09:43:11.607Z,28.66
2019-05-13T09:44:12.337Z,27.82
2019-05-13T09:45:12.263Z,27.72
2019-05-13T09:46:11.877Z,28.55
2019-05-13T09:47:12.418Z,29.24
2019-05-13T09:48:12.924Z,28.41
2019-05-13T09:49:19.203Z,27.41
2019-05-13T09:50:27.621Z,28.77
2019-05-13T09:51:12.464Z,27.17
2019-05-13T09:52:11.945Z,27.56
2019-05-13T09:53:11.492Z,25.86
2019-05-13T09:54:11.725Z,25.27
2019-05-13T09:55:25.562Z,26.81
2019-05-13T09:56:12.023Z,28.52
2019-05-13T09:57:12.142Z,28.32
2019-05-13T09:58:11.836Z,26.70
2019-05-13T09:59:11.722Z,27.81
2019-05-13T10:00:12.185Z,28.23
2019-05-13T10:01:12.400Z,28.71
2019-05-13T10:02:12.516Z,27.59
2019-05-13T10:03:13.525Z,27.88
2019-05-13T10:04:11.920Z,27.11
2019-05-13T10:05:11.558Z,26.82
2019-05-13T10:06:12.663Z,26.52
2019-05-13T10:07:12.389Z,26.65
2019-05-13T10:08:12.565Z,25.81
2019-05-13T10:09:12.622Z,25.17
2019-05-13T10:10:11.981Z,25.77
2019-05-13T10:11:12.330Z,23.38
2019-05-13T10:12:12.180Z,23.68
2019-05-13T10:13:13.064Z,23.39
2019-05-13T10:14:11.912Z,24.23
2019-05-13T10:15:12.682Z,23.64
2019-05-13T10:16:12.462Z,23.57
2019-05-13T10:17:12.884Z,23.16
2019-05-13T10:18:12.525Z,23.88
2019-05-13T10:19:12.692Z,23.36
2019-05-13T10:20:12.082Z,22.78
2019-05-13T10:21:10.458Z,23.76
2019-05-13T10:22:12.003Z,23.13
2019-05-13T10:23:12.588Z,22.83
2019-05-13T10:24:12.585Z,23.21
2019-05-13T10:25:12.056Z,23.57
2019-05-13T10:26:13.639Z,23.27
2019-05-13T10:27:12.164Z,22.09
2019-05-13T10:28:12.683Z,21.81
2019-05-13T10:29:11.928Z,20.62
2019-05-13T10:30:11.461Z,21.65
2019-05-13T10:31:11.965Z,23.03
2019-05-13T10:32:10.405Z,23.82
2019-05-13T10:33:12.369Z,23.28
2019-05-13T10:34:10.317Z,22.05
2019-05-13T10:35:10.304Z,21.73
2019-05-13T10:36:12.162Z,21.83
2019-05-13T10:37:11.346Z,23.45
2019-05-13T10:38:13.148Z,22.75
2019-05-13T10:39:11.887Z,22.83
2019-05-13T10:40:11.582Z,23.06
2019-05-13T10:41:11.936Z,23.95
2019-05-13T10:42:12.136Z,23.62
2019-05-13T10:43:28.121Z,22.89
2019-05-13T10:44:12.145Z,23.00
2019-05-13T10:45:12.935Z,22.08
2019-05-13T10:46:12.777Z,21.98
2019-05-13T10:47:12.036Z,22.35
2019-05-13T10:48:12.811Z,22.31
2019-05-13T10:49:12.210Z,21.73
2019-05-13T10:50:10.213Z,22.06
2019-05-13T10:51:12.889Z,23.47
2019-05-13T10:52:12.239Z,23.18
2019-05-13T10:53:12.272Z,22.17
2019-05-13T10:54:10.098Z,22.69
2019-05-13T10:55:12.880Z,23.19
2019-05-13T10:56:10.143Z,20.68
2019-05-13T10:57:13.362Z,21.72
2019-05-13T10:58:12.270Z,21.91
2019-05-13T10:59:12.567Z,22.28
2019-05-13T11:00:12.224Z,23.07
2019-05-13T11:01:11.652Z,23.95
2019-05-13T11:02:13.089Z,23.42
2019-05-13T11:03:11.774Z,22.22
2019-05-13T11:04:13.313Z,22.38
2019-05-13T11:05:12.271Z,23.61
2019-05-13T11:06:11.691Z,23.79
2019-05-13T11:07:12.083Z,23.55
2019-05-13T11:08:10.015Z,23.61
2019-05-13T11:09:12.768Z,21.41
2019-05-13T11:10:10.538Z,21.22
2019-05-13T11:11:10.204Z,21.63
2019-05-13T11:12:12.172Z,20.22
2019-05-13T11:13:10.772Z,22.34
2019-05-13T11:14:12.864Z,20.47
2019-05-13T11:15:10.868Z,20.45
2019-05-13T11:16:12.189Z,20.05
2019-05-13T11:17:12.307Z,19.16
2019-05-13T11:18:14.188Z,20.43
2019-05-13T11:19:11.922Z,20.13
2019-05-13T11:20:12.244Z,20.72
2019-05-13T11:21:12.769Z,21.11
2019-05-13T11:22:12.317Z,18.90
2019-05-13T11:23:12.465Z,19.50
2019-05-13T11:24:12.726Z,19.01
2019-05-13T11:25:11.804Z,20.21
2019-05-13T11:26:10.093Z,20.72
2019-05-13T11:27:11.993Z,21.52
2019-05-13T11:28:11.620Z,19.60
2019-05-13T11:29:12.088Z,19.04
2019-05-13T11:30:09.726Z,19.63
2019-05-13T11:31:09.769Z,20.23
2019-05-13T11:32:09.687Z,20.62
2019-05-13T11:33:10.301Z,20.42
2019-05-13T11:34:09.670Z,20.79
2019-05-13T11:35:12.788Z,20.18
2019-05-13T11:36:12.407Z,21.79
2019-05-13T11:37:12.401Z,20.28
2019-05-13T11:38:12.055Z,20.19
2019-05-13T11:39:12.692Z,22.06
2019-05-13T11:40:12.037Z,22.08
2019-05-13T11:41:11.839Z,22.08
2019-05-13T11:42:13.201Z,22.06
2019-05-13T11:43:12.134Z,21.94
2019-05-13T11:44:16.122Z,20.76
2019-05-13T11:45:11.725Z,22.00
2019-05-13T11:46:09.539Z,22.58
2019-05-13T11:47:12.195Z,22.16
2019-05-13T11:48:09.921Z,20.54
2019-05-13T11:49:11.783Z,19.96
2019-05-13T11:50:11.556Z,20.79
2019-05-13T11:51:12.808Z,22.15
2019-05-13T11:52:11.664Z,22.65
2019-05-13T11:53:28.059Z,22.25
2019-05-13T11:54:14.036Z,23.95
2019-05-13T11:55:12.772Z,23.12
2019-05-13T11:56:11.546Z,21.67
2019-05-13T11:57:11.694Z,21.81
2019-05-13T11:58:13.474Z,22.09
2019-05-13T11:59:09.428Z,22.00
2019-05-13T12:00:12.891Z,22.30
2019-05-13T12:01:09.378Z,22.25
2019-05-13T12:02:13.241Z,21.53
2019-05-13T12:03:09.357Z,20.45
2019-05-13T12:04:09.346Z,20.42
2019-05-13T12:05:09.342Z,20.84
2019-05-13T12:06:09.397Z,21.51
2019-05-13T12:07:09.316Z,21.33
2019-05-13T12:08:12.523Z,20.15
2019-05-13T12:09:09.291Z,18.95
2019-05-13T12:10:12.275Z,20.23
2019-05-13T12:11:09.272Z,19.49
2019-05-13T12:12:12.288Z,19.71
2019-05-13T12:13:11.872Z,20.11
2019-05-13T12:14:36.747Z,19.40
2019-05-13T12:15:33.489Z,18.71
2019-05-13T12:16:12.847Z,19.89
2019-05-13T12:17:09.205Z,20.39
2019-05-13T12:18:11.649Z,18.90
2019-05-13T12:19:11.858Z,18.98
2019-05-13T12:20:12.027Z,18.16
2019-05-13T12:21:09.163Z,18.84
2019-05-13T12:22:09.199Z,18.55
2019-05-13T12:23:09.146Z,19.77
2019-05-13T12:24:10.998Z,20.19
2019-05-13T12:25:09.120Z,20.19
2019-05-13T12:26:09.113Z,20.61
2019-05-13T12:27:09.265Z,20.03
2019-05-13T12:28:11.339Z,20.54
2019-05-13T12:29:17.633Z,20.73
2019-05-13T12:30:12.410Z,21.31
2019-05-13T12:31:09.068Z,19.78
2019-05-13T12:32:12.580Z,19.72
2019-05-13T12:33:12.965Z,19.27
2019-05-13T12:34:12.757Z,20.15
2019-05-13T12:35:09.743Z,20.46
2019-05-13T12:36:15.368Z,21.58
2019-05-13T12:37:12.237Z,20.48
2019-05-13T12:38:12.960Z,20.81
2019-05-13T12:39:13.971Z,21.09
2019-05-13T12:40:09.958Z,22.11
2019-05-13T12:41:12.573Z,22.74
2019-05-13T12:42:09.009Z,22.83
2019-05-13T12:43:08.936Z,22.31
2019-05-13T12:44:08.911Z,23.03
2019-05-13T12:45:10.976Z,23.11
2019-05-13T12:46:12.461Z,21.48
2019-05-13T12:47:11.394Z,20.05
2019-05-13T12:48:08.936Z,20.45
2019-05-13T12:49:08.859Z,19.73
2019-05-13T12:50:08.847Z,18.94
2019-05-13T12:51:08.835Z,19.13
2019-05-13T12:52:12.415Z,19.81